sensor_id;sensor_type;location;lat;lon;timestamp;P1;durP1;ratioP1;P2;durP2;ratioP2
1400;SDS011;46518;48.842;8.926;2023-05-07T00:00:18;6.20;;;5.20;;
1400;SDS011;46518;48.842;8.926;2023-05-07T00:02:47;5.68;;;5.07;;
1400;SDS011;46518;48.842;8.926;2023-05-07T00:05:17;6.10;;;4.70;;
1400;SDS011;46518;48.842;8.926;2023-05-07T00:07:47;5.00;;;4.50;;
1400;SDS011;46518;48.842;8.926;2023-05-07T00:10:15;6.35;;;4.47;;
1400;SDS011;46518;48.842;8.926;2023-05-07T00:12:43;4.85;;;4.45;;
1400;SDS011;46518;48.842;8.926;2023-05-07T00:15:13;6.68;;;5.15;;
1400;SDS011;46518;48.842;8.926;2023-05-07T00:17:41;5.18;;;4.68;;
1400;SDS011;46518;48.842;8.926;2023-05-07T00:20:09;4.95;;;4.45;;
1400;SDS011;46518;48.842;8.926;2023-05-07T00:22:39;5.13;;;4.63;;
1400;SDS011;46518;48.842;8.926;2023-05-07T00:25:07;6.75;;;5.43;;
1400;SDS011;46518;48.842;8.926;2023-05-07T00:27:36;4.90;;;4.47;;
1400;SDS011;46518;48.842;8.926;2023-05-07T00:30:06;4.80;;;4.25;;
1400;SDS011;46518;48.842;8.926;2023-05-07T00:32:36;5.00;;;4.22;;
1400;SDS011;46518;48.842;8.926;2023-05-07T00:35:05;5.43;;;4.60;;
1400;SDS011;46518;48.842;8.926;2023-05-07T00:37:34;6.13;;;5.53;;
1400;SDS011;46518;48.842;8.926;2023-05-07T00:40:03;7.25;;;5.10;;
1400;SDS011;46518;48.842;8.926;2023-05-07T00:42:34;6.40;;;5.80;;
1400;SDS011;46518;48.842;8.926;2023-05-07T00:45:02;8.07;;;5.57;;
1400;SDS011;46518;48.842;8.926;2023-05-07T00:47:31;6.88;;;5.55;;
1400;SDS011;46518;48.842;8.926;2023-05-07T00:50:00;5.30;;;4.78;;
1400;SDS011;46518;48.842;8.926;2023-05-07T00:52:29;4.88;;;4.38;;
1400;SDS011;46518;48.842;8.926;2023-05-07T00:54:57;4.82;;;4.43;;
1400;SDS011;46518;48.842;8.926;2023-05-07T00:57:27;6.00;;;5.43;;
1400;SDS011;46518;48.842;8.926;2023-05-07T00:59:56;6.60;;;4.40;;
1400;SDS011;46518;48.842;8.926;2023-05-07T01:02:24;5.22;;;4.72;;
1400;SDS011;46518;48.842;8.926;2023-05-07T01:04:53;5.15;;;4.43;;
1400;SDS011;46518;48.842;8.926;2023-05-07T01:07:23;4.70;;;4.03;;
1400;SDS011;46518;48.842;8.926;2023-05-07T01:09:51;5.72;;;3.75;;
1400;SDS011;46518;48.842;8.926;2023-05-07T01:12:20;5.95;;;5.22;;
1400;SDS011;46518;48.842;8.926;2023-05-07T01:14:48;6.35;;;4.63;;
1400;SDS011;46518;48.842;8.926;2023-05-07T01:17:17;3.95;;;3.65;;
1400;SDS011;46518;48.842;8.926;2023-05-07T01:19:46;4.38;;;3.97;;
1400;SDS011;46518;48.842;8.926;2023-05-07T01:22:16;4.22;;;3.80;;
1400;SDS011;46518;48.842;8.926;2023-05-07T01:24:56;5.63;;;4.10;;
1400;SDS011;46518;48.842;8.926;2023-05-07T01:27:27;5.25;;;4.80;;
1400;SDS011;46518;48.842;8.926;2023-05-07T01:29:56;5.28;;;4.78;;
1400;SDS011;46518;48.842;8.926;2023-05-07T01:32:26;9.07;;;4.90;;
1400;SDS011;46518;48.842;8.926;2023-05-07T01:35:00;5.32;;;4.82;;
1400;SDS011;46518;48.842;8.926;2023-05-07T01:37:33;7.07;;;5.15;;
1400;SDS011;46518;48.842;8.926;2023-05-07T01:40:01;4.45;;;4.00;;
1400;SDS011;46518;48.842;8.926;2023-05-07T01:42:31;4.63;;;3.97;;
1400;SDS011;46518;48.842;8.926;2023-05-07T01:44:59;5.03;;;4.40;;
1400;SDS011;46518;48.842;8.926;2023-05-07T01:47:28;5.53;;;5.03;;
1400;SDS011;46518;48.842;8.926;2023-05-07T01:49:57;5.07;;;4.57;;
1400;SDS011;46518;48.842;8.926;2023-05-07T01:52:26;4.90;;;4.40;;
1400;SDS011;46518;48.842;8.926;2023-05-07T01:54:57;7.10;;;5.55;;
1400;SDS011;46518;48.842;8.926;2023-05-07T01:57:25;6.07;;;5.40;;
1400;SDS011;46518;48.842;8.926;2023-05-07T01:59:53;6.43;;;5.28;;
1400;SDS011;46518;48.842;8.926;2023-05-07T02:02:21;4.80;;;4.32;;
1400;SDS011;46518;48.842;8.926;2023-05-07T02:04:51;4.43;;;3.70;;
1400;SDS011;46518;48.842;8.926;2023-05-07T02:07:21;4.38;;;4.05;;
1400;SDS011;46518;48.842;8.926;2023-05-07T02:09:49;4.50;;;4.10;;
1400;SDS011;46518;48.842;8.926;2023-05-07T02:12:20;4.13;;;3.83;;
1400;SDS011;46518;48.842;8.926;2023-05-07T02:14:48;4.80;;;4.20;;
1400;SDS011;46518;48.842;8.926;2023-05-07T02:17:16;5.43;;;4.93;;
1400;SDS011;46518;48.842;8.926;2023-05-07T02:19:44;5.00;;;4.55;;
1400;SDS011;46518;48.842;8.926;2023-05-07T02:22:13;4.38;;;3.97;;
1400;SDS011;46518;48.842;8.926;2023-05-07T02:24:42;4.93;;;4.43;;
1400;SDS011;46518;48.842;8.926;2023-05-07T02:27:11;6.40;;;4.70;;
1400;SDS011;46518;48.842;8.926;2023-05-07T02:29:41;4.95;;;4.45;;
1400;SDS011;46518;48.842;8.926;2023-05-07T02:32:09;4.35;;;4.03;;
1400;SDS011;46518;48.842;8.926;2023-05-07T02:34:37;5.03;;;4.55;;
1400;SDS011;46518;48.842;8.926;2023-05-07T02:37:06;6.65;;;4.40;;
1400;SDS011;46518;48.842;8.926;2023-05-07T02:39:34;5.75;;;4.93;;
1400;SDS011;46518;48.842;8.926;2023-05-07T02:42:04;7.50;;;4.78;;
1400;SDS011;46518;48.842;8.926;2023-05-07T02:44:32;5.20;;;4.75;;
1400;SDS011;46518;48.842;8.926;2023-05-07T02:47:03;6.43;;;4.88;;
1400;SDS011;46518;48.842;8.926;2023-05-07T02:49:36;5.93;;;4.57;;
1400;SDS011;46518;48.842;8.926;2023-05-07T02:52:05;5.40;;;4.72;;
1400;SDS011;46518;48.842;8.926;2023-05-07T02:54:33;5.90;;;5.25;;
1400;SDS011;46518;48.842;8.926;2023-05-07T02:57:02;5.65;;;4.40;;
1400;SDS011;46518;48.842;8.926;2023-05-07T02:59:30;5.05;;;4.32;;
1400;SDS011;46518;48.842;8.926;2023-05-07T03:01:58;5.20;;;4.70;;
1400;SDS011;46518;48.842;8.926;2023-05-07T03:04:28;4.20;;;3.90;;
1400;SDS011;46518;48.842;8.926;2023-05-07T03:06:56;4.80;;;4.40;;
1400;SDS011;46518;48.842;8.926;2023-05-07T03:09:24;5.43;;;4.65;;
1400;SDS011;46518;48.842;8.926;2023-05-07T03:11:53;5.05;;;4.65;;
1400;SDS011;46518;48.842;8.926;2023-05-07T03:14:21;4.32;;;3.92;;
1400;SDS011;46518;48.842;8.926;2023-05-07T03:16:49;5.50;;;5.00;;
1400;SDS011;46518;48.842;8.926;2023-05-07T03:19:18;4.70;;;4.30;;
1400;SDS011;46518;48.842;8.926;2023-05-07T03:21:47;6.85;;;4.68;;
1400;SDS011;46518;48.842;8.926;2023-05-07T03:24:16;5.60;;;5.10;;
1400;SDS011;46518;48.842;8.926;2023-05-07T03:26:44;5.22;;;4.82;;
1400;SDS011;46518;48.842;8.926;2023-05-07T03:29:12;4.85;;;4.45;;
1400;SDS011;46518;48.842;8.926;2023-05-07T03:31:40;5.05;;;4.65;;
1400;SDS011;46518;48.842;8.926;2023-05-07T03:34:09;5.15;;;4.65;;
1400;SDS011;46518;48.842;8.926;2023-05-07T03:36:37;5.35;;;4.22;;
1400;SDS011;46518;48.842;8.926;2023-05-07T03:39:10;4.45;;;3.90;;
1400;SDS011;46518;48.842;8.926;2023-05-07T03:41:40;5.13;;;4.60;;
1400;SDS011;46518;48.842;8.926;2023-05-07T03:44:08;4.65;;;4.25;;
1400;SDS011;46518;48.842;8.926;2023-05-07T03:46:37;4.50;;;4.10;;
1400;SDS011;46518;48.842;8.926;2023-05-07T03:49:08;5.43;;;4.93;;
1400;SDS011;46518;48.842;8.926;2023-05-07T03:51:37;5.82;;;4.90;;
1400;SDS011;46518;48.842;8.926;2023-05-07T03:54:07;5.90;;;4.68;;
1400;SDS011;46518;48.842;8.926;2023-05-07T03:56:40;5.70;;;5.20;;
1400;SDS011;46518;48.842;8.926;2023-05-07T03:59:08;6.07;;;5.53;;
1400;SDS011;46518;48.842;8.926;2023-05-07T04:01:47;8.35;;;5.10;;
1400;SDS011;46518;48.842;8.926;2023-05-07T04:04:17;6.43;;;5.82;;
1400;SDS011;46518;48.842;8.926;2023-05-07T04:06:47;4.43;;;4.03;;
1400;SDS011;46518;48.842;8.926;2023-05-07T04:09:15;6.78;;;6.13;;
1400;SDS011;46518;48.842;8.926;2023-05-07T04:11:46;5.55;;;5.05;;
1400;SDS011;46518;48.842;8.926;2023-05-07T04:14:14;5.75;;;5.15;;
1400;SDS011;46518;48.842;8.926;2023-05-07T04:16:43;6.35;;;5.25;;
1400;SDS011;46518;48.842;8.926;2023-05-07T04:22:05;6.72;;;6.05;;
1400;SDS011;46518;48.842;8.926;2023-05-07T04:24:33;8.20;;;6.10;;
1400;SDS011;46518;48.842;8.926;2023-05-07T04:27:03;5.55;;;5.15;;
1400;SDS011;46518;48.842;8.926;2023-05-07T04:29:33;5.80;;;5.30;;
1400;SDS011;46518;48.842;8.926;2023-05-07T04:32:02;6.15;;;5.13;;
1400;SDS011;46518;48.842;8.926;2023-05-07T04:34:30;6.10;;;5.50;;
1400;SDS011;46518;48.842;8.926;2023-05-07T04:37:00;4.97;;;4.57;;
1400;SDS011;46518;48.842;8.926;2023-05-07T04:39:29;5.45;;;4.57;;
1400;SDS011;46518;48.842;8.926;2023-05-07T04:41:57;4.30;;;4.00;;
1400;SDS011;46518;48.842;8.926;2023-05-07T04:44:27;7.38;;;4.07;;
1400;SDS011;46518;48.842;8.926;2023-05-07T04:46:57;5.25;;;4.72;;
1400;SDS011;46518;48.842;8.926;2023-05-07T04:49:26;5.30;;;4.82;;
1400;SDS011;46518;48.842;8.926;2023-05-07T04:51:55;5.15;;;4.15;;
1400;SDS011;46518;48.842;8.926;2023-05-07T04:54:24;4.70;;;4.10;;
1400;SDS011;46518;48.842;8.926;2023-05-07T04:56:53;3.92;;;3.53;;
1400;SDS011;46518;48.842;8.926;2023-05-07T04:59:21;4.10;;;3.17;;
1400;SDS011;46518;48.842;8.926;2023-05-07T05:01:55;5.25;;;3.75;;
1400;SDS011;46518;48.842;8.926;2023-05-07T05:04:25;6.07;;;4.40;;
1400;SDS011;46518;48.842;8.926;2023-05-07T05:06:53;4.60;;;3.85;;
1400;SDS011;46518;48.842;8.926;2023-05-07T05:09:22;4.55;;;4.15;;
1400;SDS011;46518;48.842;8.926;2023-05-07T05:11:50;4.75;;;4.25;;
1400;SDS011;46518;48.842;8.926;2023-05-07T05:14:19;6.43;;;4.47;;
1400;SDS011;46518;48.842;8.926;2023-05-07T05:16:47;4.60;;;4.13;;
1400;SDS011;46518;48.842;8.926;2023-05-07T05:19:17;4.55;;;4.18;;
1400;SDS011;46518;48.842;8.926;2023-05-07T05:21:46;4.75;;;4.15;;
1400;SDS011;46518;48.842;8.926;2023-05-07T05:24:14;4.15;;;3.65;;
1400;SDS011;46518;48.842;8.926;2023-05-07T05:26:43;3.40;;;3.05;;
1400;SDS011;46518;48.842;8.926;2023-05-07T05:29:12;3.65;;;3.35;;
1400;SDS011;46518;48.842;8.926;2023-05-07T05:31:41;4.82;;;3.80;;
1400;SDS011;46518;48.842;8.926;2023-05-07T05:34:10;3.67;;;3.38;;
1400;SDS011;46518;48.842;8.926;2023-05-07T05:36:40;3.72;;;3.42;;
1400;SDS011;46518;48.842;8.926;2023-05-07T05:39:08;3.70;;;3.40;;
1400;SDS011;46518;48.842;8.926;2023-05-07T05:41:36;3.55;;;3.25;;
1400;SDS011;46518;48.842;8.926;2023-05-07T05:44:05;4.50;;;4.00;;
1400;SDS011;46518;48.842;8.926;2023-05-07T05:46:33;4.22;;;3.92;;
1400;SDS011;46518;48.842;8.926;2023-05-07T05:49:03;5.07;;;4.45;;
1400;SDS011;46518;48.842;8.926;2023-05-07T05:51:31;4.20;;;3.90;;
1400;SDS011;46518;48.842;8.926;2023-05-07T05:54:01;4.70;;;4.30;;
1400;SDS011;46518;48.842;8.926;2023-05-07T05:56:30;4.13;;;3.72;;
1400;SDS011;46518;48.842;8.926;2023-05-07T05:58:59;4.28;;;3.92;;
1400;SDS011;46518;48.842;8.926;2023-05-07T06:01:27;5.50;;;4.28;;
1400;SDS011;46518;48.842;8.926;2023-05-07T06:03:59;4.60;;;4.20;;
1400;SDS011;46518;48.842;8.926;2023-05-07T06:06:28;3.78;;;3.47;;
1400;SDS011;46518;48.842;8.926;2023-05-07T06:08:58;4.30;;;4.00;;
1400;SDS011;46518;48.842;8.926;2023-05-07T06:11:35;5.18;;;3.60;;
1400;SDS011;46518;48.842;8.926;2023-05-07T06:14:04;4.28;;;3.97;;
1400;SDS011;46518;48.842;8.926;2023-05-07T06:16:33;4.20;;;3.80;;
1400;SDS011;46518;48.842;8.926;2023-05-07T06:19:05;3.80;;;3.50;;
1400;SDS011;46518;48.842;8.926;2023-05-07T06:21:33;4.20;;;3.80;;
1400;SDS011;46518;48.842;8.926;2023-05-07T06:24:02;4.57;;;3.30;;
1400;SDS011;46518;48.842;8.926;2023-05-07T06:26:30;4.68;;;4.18;;
1400;SDS011;46518;48.842;8.926;2023-05-07T06:29:00;4.35;;;4.03;;
1400;SDS011;46518;48.842;8.926;2023-05-07T06:31:29;4.00;;;3.70;;
1400;SDS011;46518;48.842;8.926;2023-05-07T06:34:04;4.15;;;3.75;;
1400;SDS011;46518;48.842;8.926;2023-05-07T06:36:36;10.80;;;4.30;;
1400;SDS011;46518;48.842;8.926;2023-05-07T06:39:13;4.20;;;3.80;;
1400;SDS011;46518;48.842;8.926;2023-05-07T06:41:42;3.92;;;3.63;;
1400;SDS011;46518;48.842;8.926;2023-05-07T06:44:22;4.90;;;3.55;;
1400;SDS011;46518;48.842;8.926;2023-05-07T06:47:12;3.80;;;3.50;;
1400;SDS011;46518;48.842;8.926;2023-05-07T06:49:44;3.65;;;3.40;;
1400;SDS011;46518;48.842;8.926;2023-05-07T06:52:16;4.05;;;3.65;;
1400;SDS011;46518;48.842;8.926;2023-05-07T06:54:45;4.35;;;3.40;;
1400;SDS011;46518;48.842;8.926;2023-05-07T06:57:16;3.72;;;3.42;;
1400;SDS011;46518;48.842;8.926;2023-05-07T06:59:46;3.35;;;3.05;;
1400;SDS011;46518;48.842;8.926;2023-05-07T07:02:14;5.18;;;4.78;;
1400;SDS011;46518;48.842;8.926;2023-05-07T07:04:45;4.50;;;3.28;;
1400;SDS011;46518;48.842;8.926;2023-05-07T07:07:14;4.18;;;3.80;;
1400;SDS011;46518;48.842;8.926;2023-05-07T07:09:45;5.50;;;4.45;;
1400;SDS011;46518;48.842;8.926;2023-05-07T07:12:16;3.65;;;3.35;;
1400;SDS011;46518;48.842;8.926;2023-05-07T07:14:46;3.80;;;3.40;;
1400;SDS011;46518;48.842;8.926;2023-05-07T07:17:14;4.28;;;3.88;;
1400;SDS011;46518;48.842;8.926;2023-05-07T07:19:42;4.28;;;3.88;;
1400;SDS011;46518;48.842;8.926;2023-05-07T07:22:11;4.20;;;3.80;;
1400;SDS011;46518;48.842;8.926;2023-05-07T07:24:40;4.60;;;4.20;;
1400;SDS011;46518;48.842;8.926;2023-05-07T07:27:11;4.88;;;4.47;;
1400;SDS011;46518;48.842;8.926;2023-05-07T07:29:39;4.35;;;4.05;;
1400;SDS011;46518;48.842;8.926;2023-05-07T07:32:09;4.90;;;4.40;;
1400;SDS011;46518;48.842;8.926;2023-05-07T07:34:38;4.22;;;3.92;;
1400;SDS011;46518;48.842;8.926;2023-05-07T07:37:07;4.35;;;3.97;;
1400;SDS011;46518;48.842;8.926;2023-05-07T07:39:36;5.65;;;4.78;;
1400;SDS011;46518;48.842;8.926;2023-05-07T07:42:07;4.30;;;3.90;;
1400;SDS011;46518;48.842;8.926;2023-05-07T07:44:35;4.07;;;3.70;;
1400;SDS011;46518;48.842;8.926;2023-05-07T07:47:07;4.60;;;4.20;;
1400;SDS011;46518;48.842;8.926;2023-05-07T07:49:37;4.35;;;3.95;;
1400;SDS011;46518;48.842;8.926;2023-05-07T07:52:08;4.55;;;4.10;;
1400;SDS011;46518;48.842;8.926;2023-05-07T07:54:37;5.32;;;3.70;;
1400;SDS011;46518;48.842;8.926;2023-05-07T07:57:06;4.80;;;3.70;;
1400;SDS011;46518;48.842;8.926;2023-05-07T07:59:35;4.80;;;4.30;;
1400;SDS011;46518;48.842;8.926;2023-05-07T08:02:04;3.88;;;3.50;;
1400;SDS011;46518;48.842;8.926;2023-05-07T08:04:33;5.07;;;4.10;;
1400;SDS011;46518;48.842;8.926;2023-05-07T08:07:05;4.15;;;3.83;;
1400;SDS011;46518;48.842;8.926;2023-05-07T08:09:37;4.13;;;3.83;;
1400;SDS011;46518;48.842;8.926;2023-05-07T08:12:07;4.43;;;3.57;;
1400;SDS011;46518;48.842;8.926;2023-05-07T08:14:37;4.20;;;3.90;;
1400;SDS011;46518;48.842;8.926;2023-05-07T08:17:06;4.37;;;4.00;;
1400;SDS011;46518;48.842;8.926;2023-05-07T08:19:37;3.83;;;3.53;;
1400;SDS011;46518;48.842;8.926;2023-05-07T08:22:09;3.47;;;3.27;;
1400;SDS011;46518;48.842;8.926;2023-05-07T08:24:38;3.90;;;3.53;;
1400;SDS011;46518;48.842;8.926;2023-05-07T08:27:06;3.90;;;3.60;;
1400;SDS011;46518;48.842;8.926;2023-05-07T08:29:34;4.03;;;3.73;;
1400;SDS011;46518;48.842;8.926;2023-05-07T08:32:02;4.30;;;3.90;;
1400;SDS011;46518;48.842;8.926;2023-05-07T08:34:34;4.47;;;4.10;;
1400;SDS011;46518;48.842;8.926;2023-05-07T08:37:04;3.23;;;2.97;;
1400;SDS011;46518;48.842;8.926;2023-05-07T08:39:35;4.00;;;3.70;;
1400;SDS011;46518;48.842;8.926;2023-05-07T08:42:09;3.60;;;3.33;;
1400;SDS011;46518;48.842;8.926;2023-05-07T08:44:39;3.90;;;3.60;;
1400;SDS011;46518;48.842;8.926;2023-05-07T08:47:08;5.40;;;4.63;;
1400;SDS011;46518;48.842;8.926;2023-05-07T08:49:37;6.30;;;4.43;;
1400;SDS011;46518;48.842;8.926;2023-05-07T08:52:07;3.77;;;3.50;;
1400;SDS011;46518;48.842;8.926;2023-05-07T08:54:38;4.43;;;4.13;;
1400;SDS011;46518;48.842;8.926;2023-05-07T08:57:09;3.90;;;3.60;;
1400;SDS011;46518;48.842;8.926;2023-05-07T08:59:37;4.40;;;4.00;;
1400;SDS011;46518;48.842;8.926;2023-05-07T09:02:06;4.37;;;4.00;;
1400;SDS011;46518;48.842;8.926;2023-05-07T09:04:39;3.80;;;3.60;;
1400;SDS011;46518;48.842;8.926;2023-05-07T09:07:07;3.87;;;3.53;;
1400;SDS011;46518;48.842;8.926;2023-05-07T09:09:42;4.70;;;4.30;;
1400;SDS011;46518;48.842;8.926;2023-05-07T09:12:13;4.37;;;3.97;;
1400;SDS011;46518;48.842;8.926;2023-05-07T09:14:41;4.53;;;4.13;;
1400;SDS011;46518;48.842;8.926;2023-05-07T09:17:10;4.93;;;4.50;;
1400;SDS011;46518;48.842;8.926;2023-05-07T09:19:38;4.60;;;4.20;;
1400;SDS011;46518;48.842;8.926;2023-05-07T09:22:07;5.80;;;5.17;;
1400;SDS011;46518;48.842;8.926;2023-05-07T09:24:56;3.90;;;3.63;;
1400;SDS011;46518;48.842;8.926;2023-05-07T09:27:26;4.93;;;3.93;;
1400;SDS011;46518;48.842;8.926;2023-05-07T09:29:56;5.07;;;4.57;;
1400;SDS011;46518;48.842;8.926;2023-05-07T09:32:25;6.77;;;4.33;;
1400;SDS011;46518;48.842;8.926;2023-05-07T09:34:54;3.80;;;3.40;;
1400;SDS011;46518;48.842;8.926;2023-05-07T09:37:25;4.37;;;4.00;;
1400;SDS011;46518;48.842;8.926;2023-05-07T09:39:53;4.40;;;3.90;;
1400;SDS011;46518;48.842;8.926;2023-05-07T09:42:25;3.30;;;3.10;;
1400;SDS011;46518;48.842;8.926;2023-05-07T09:44:58;3.87;;;3.47;;
1400;SDS011;46518;48.842;8.926;2023-05-07T09:47:33;4.93;;;4.53;;
1400;SDS011;46518;48.842;8.926;2023-05-07T09:50:07;3.80;;;3.50;;
1400;SDS011;46518;48.842;8.926;2023-05-07T09:53:04;3.43;;;3.23;;
1400;SDS011;46518;48.842;8.926;2023-05-07T09:55:34;4.13;;;3.83;;
1400;SDS011;46518;48.842;8.926;2023-05-07T09:58:04;4.30;;;4.00;;
1400;SDS011;46518;48.842;8.926;2023-05-07T10:00:34;5.27;;;4.57;;
1400;SDS011;46518;48.842;8.926;2023-05-07T10:03:08;6.87;;;4.30;;
1400;SDS011;46518;48.842;8.926;2023-05-07T10:05:45;5.37;;;4.20;;
1400;SDS011;46518;48.842;8.926;2023-05-07T10:08:17;4.07;;;3.80;;
1400;SDS011;46518;48.842;8.926;2023-05-07T10:10:49;4.03;;;3.50;;
1400;SDS011;46518;48.842;8.926;2023-05-07T10:13:23;5.07;;;4.20;;
1400;SDS011;46518;48.842;8.926;2023-05-07T10:15:55;4.03;;;3.70;;
1400;SDS011;46518;48.842;8.926;2023-05-07T10:18:27;4.13;;;3.40;;
1400;SDS011;46518;48.842;8.926;2023-05-07T10:21:06;4.10;;;3.70;;
1400;SDS011;46518;48.842;8.926;2023-05-07T10:23:36;5.67;;;4.10;;
1400;SDS011;46518;48.842;8.926;2023-05-07T10:26:07;3.97;;;3.67;;
1400;SDS011;46518;48.842;8.926;2023-05-07T10:28:38;4.60;;;4.20;;
1400;SDS011;46518;48.842;8.926;2023-05-07T10:31:15;4.20;;;3.90;;
1400;SDS011;46518;48.842;8.926;2023-05-07T10:33:51;5.63;;;4.10;;
1400;SDS011;46518;48.842;8.926;2023-05-07T10:36:22;4.57;;;4.20;;
1400;SDS011;46518;48.842;8.926;2023-05-07T10:38:53;4.30;;;4.00;;
1400;SDS011;46518;48.842;8.926;2023-05-07T10:41:23;4.70;;;4.30;;
1400;SDS011;46518;48.842;8.926;2023-05-07T10:43:53;4.40;;;4.17;;
1400;SDS011;46518;48.842;8.926;2023-05-07T10:46:27;4.30;;;4.00;;
1400;SDS011;46518;48.842;8.926;2023-05-07T10:49:10;5.27;;;4.80;;
1400;SDS011;46518;48.842;8.926;2023-05-07T10:52:11;4.17;;;3.87;;
1400;SDS011;46518;48.842;8.926;2023-05-07T10:54:48;4.63;;;4.23;;
1400;SDS011;46518;48.842;8.926;2023-05-07T11:01:13;5.17;;;4.67;;
1400;SDS011;46518;48.842;8.926;2023-05-07T11:07:10;6.90;;;5.93;;
1400;SDS011;46518;48.842;8.926;2023-05-07T11:10:05;5.30;;;4.80;;
1400;SDS011;46518;48.842;8.926;2023-05-07T11:12:59;4.90;;;4.40;;
1400;SDS011;46518;48.842;8.926;2023-05-07T11:15:40;4.90;;;4.50;;
1400;SDS011;46518;48.842;8.926;2023-05-07T11:18:27;4.73;;;4.13;;
1400;SDS011;46518;48.842;8.926;2023-05-07T11:24:43;5.20;;;4.73;;
1400;SDS011;46518;48.842;8.926;2023-05-07T11:27:20;4.83;;;4.43;;
1400;SDS011;46518;48.842;8.926;2023-05-07T11:29:56;4.67;;;4.27;;
1400;SDS011;46518;48.842;8.926;2023-05-07T11:32:34;4.90;;;4.53;;
1400;SDS011;46518;48.842;8.926;2023-05-07T11:35:10;4.60;;;4.30;;
1400;SDS011;46518;48.842;8.926;2023-05-07T11:37:48;5.17;;;4.67;;
1400;SDS011;46518;48.842;8.926;2023-05-07T11:40:32;5.80;;;5.30;;
1400;SDS011;46518;48.842;8.926;2023-05-07T11:43:10;5.77;;;5.27;;
1400;SDS011;46518;48.842;8.926;2023-05-07T11:45:40;5.13;;;4.73;;
1400;SDS011;46518;48.842;8.926;2023-05-07T11:48:17;4.90;;;4.50;;
1400;SDS011;46518;48.842;8.926;2023-05-07T11:50:54;6.23;;;5.13;;
1400;SDS011;46518;48.842;8.926;2023-05-07T11:53:37;4.93;;;4.43;;
1400;SDS011;46518;48.842;8.926;2023-05-07T11:56:11;4.67;;;4.27;;
1400;SDS011;46518;48.842;8.926;2023-05-07T11:58:42;5.70;;;5.30;;
1400;SDS011;46518;48.842;8.926;2023-05-07T12:01:16;6.30;;;5.80;;
1400;SDS011;46518;48.842;8.926;2023-05-07T12:03:52;4.77;;;4.37;;
1400;SDS011;46518;48.842;8.926;2023-05-07T12:06:22;5.40;;;5.00;;
1400;SDS011;46518;48.842;8.926;2023-05-07T12:08:51;4.93;;;4.40;;
1400;SDS011;46518;48.842;8.926;2023-05-07T12:11:22;4.77;;;4.30;;
1400;SDS011;46518;48.842;8.926;2023-05-07T12:13:53;4.90;;;4.50;;
1400;SDS011;46518;48.842;8.926;2023-05-07T12:16:25;5.20;;;4.73;;
1400;SDS011;46518;48.842;8.926;2023-05-07T12:18:53;4.07;;;3.77;;
1400;SDS011;46518;48.842;8.926;2023-05-07T12:21:24;4.27;;;3.97;;
1400;SDS011;46518;48.842;8.926;2023-05-07T12:23:52;4.60;;;4.30;;
1400;SDS011;46518;48.842;8.926;2023-05-07T12:26:21;4.70;;;4.40;;
1400;SDS011;46518;48.842;8.926;2023-05-07T12:28:54;5.50;;;4.90;;
1400;SDS011;46518;48.842;8.926;2023-05-07T12:31:22;4.33;;;3.90;;
1400;SDS011;46518;48.842;8.926;2023-05-07T12:33:53;4.30;;;3.90;;
1400;SDS011;46518;48.842;8.926;2023-05-07T12:36:26;4.73;;;4.33;;
1400;SDS011;46518;48.842;8.926;2023-05-07T12:39:04;4.90;;;4.43;;
1400;SDS011;46518;48.842;8.926;2023-05-07T12:41:35;5.13;;;3.43;;
1400;SDS011;46518;48.842;8.926;2023-05-07T12:44:04;4.63;;;3.00;;
1400;SDS011;46518;48.842;8.926;2023-05-07T12:46:34;2.88;;;2.67;;
1400;SDS011;46518;48.842;8.926;2023-05-07T12:49:16;2.97;;;2.77;;
1400;SDS011;46518;48.842;8.926;2023-05-07T12:51:47;2.63;;;2.35;;
1400;SDS011;46518;48.842;8.926;2023-05-07T12:54:28;3.90;;;2.55;;
1400;SDS011;46518;48.842;8.926;2023-05-07T12:57:03;3.10;;;2.05;;
1400;SDS011;46518;48.842;8.926;2023-05-07T12:59:42;1.95;;;1.85;;
1400;SDS011;46518;48.842;8.926;2023-05-07T13:02:11;2.30;;;2.20;;
1400;SDS011;46518;48.842;8.926;2023-05-07T13:04:47;2.73;;;2.53;;
1400;SDS011;46518;48.842;8.926;2023-05-07T13:07:26;2.70;;;2.50;;
1400;SDS011;46518;48.842;8.926;2023-05-07T13:09:57;3.13;;;2.50;;
1400;SDS011;46518;48.842;8.926;2023-05-07T13:12:27;6.57;;;2.80;;
1400;SDS011;46518;48.842;8.926;2023-05-07T13:14:56;2.30;;;2.20;;
1400;SDS011;46518;48.842;8.926;2023-05-07T13:17:26;2.10;;;1.90;;
1400;SDS011;46518;48.842;8.926;2023-05-07T13:19:55;3.30;;;2.95;;
1400;SDS011;46518;48.842;8.926;2023-05-07T13:22:26;3.35;;;2.78;;
1400;SDS011;46518;48.842;8.926;2023-05-07T13:25:01;2.63;;;2.42;;
1400;SDS011;46518;48.842;8.926;2023-05-07T13:27:36;3.63;;;3.10;;
1400;SDS011;46518;48.842;8.926;2023-05-07T13:30:10;2.95;;;2.50;;
1400;SDS011;46518;48.842;8.926;2023-05-07T13:32:40;2.38;;;2.17;;
1400;SDS011;46518;48.842;8.926;2023-05-07T13:35:12;2.67;;;2.47;;
1400;SDS011;46518;48.842;8.926;2023-05-07T13:37:43;4.38;;;2.90;;
1400;SDS011;46518;48.842;8.926;2023-05-07T13:40:12;6.95;;;3.65;;
1400;SDS011;46518;48.842;8.926;2023-05-07T13:42:40;6.40;;;5.13;;
1400;SDS011;46518;48.842;8.926;2023-05-07T13:45:10;4.95;;;4.00;;
1400;SDS011;46518;48.842;8.926;2023-05-07T13:47:41;13.73;;;4.43;;
1400;SDS011;46518;48.842;8.926;2023-05-07T13:50:12;4.72;;;4.22;;
1400;SDS011;46518;48.842;8.926;2023-05-07T13:52:48;5.72;;;4.10;;
1400;SDS011;46518;48.842;8.926;2023-05-07T13:55:17;4.95;;;3.03;;
1400;SDS011;46518;48.842;8.926;2023-05-07T13:57:46;3.97;;;3.08;;
1400;SDS011;46518;48.842;8.926;2023-05-07T14:00:15;4.43;;;3.65;;
1400;SDS011;46518;48.842;8.926;2023-05-07T14:02:43;8.20;;;4.10;;
1400;SDS011;46518;48.842;8.926;2023-05-07T14:05:12;4.93;;;4.35;;
1400;SDS011;46518;48.842;8.926;2023-05-07T14:07:40;4.88;;;4.38;;
1400;SDS011;46518;48.842;8.926;2023-05-07T14:10:10;3.50;;;3.20;;
1400;SDS011;46518;48.842;8.926;2023-05-07T14:12:40;5.07;;;3.22;;
1400;SDS011;46518;48.842;8.926;2023-05-07T14:15:09;3.90;;;3.60;;
1400;SDS011;46518;48.842;8.926;2023-05-07T14:17:37;3.60;;;3.30;;
1400;SDS011;46518;48.842;8.926;2023-05-07T14:20:06;4.07;;;3.45;;
1400;SDS011;46518;48.842;8.926;2023-05-07T14:22:35;4.13;;;3.80;;
1400;SDS011;46518;48.842;8.926;2023-05-07T14:25:04;4.55;;;3.50;;
1400;SDS011;46518;48.842;8.926;2023-05-07T14:27:35;11.10;;;5.18;;
1400;SDS011;46518;48.842;8.926;2023-05-07T14:30:03;5.45;;;3.70;;
1400;SDS011;46518;48.842;8.926;2023-05-07T14:32:32;5.53;;;5.03;;
1400;SDS011;46518;48.842;8.926;2023-05-07T14:35:00;5.78;;;3.90;;
1400;SDS011;46518;48.842;8.926;2023-05-07T14:37:30;4.25;;;3.85;;
1400;SDS011;46518;48.842;8.926;2023-05-07T14:39:58;5.53;;;4.50;;
1400;SDS011;46518;48.842;8.926;2023-05-07T14:42:26;4.82;;;4.32;;
1400;SDS011;46518;48.842;8.926;2023-05-07T14:44:56;5.03;;;4.63;;
1400;SDS011;46518;48.842;8.926;2023-05-07T14:47:24;5.68;;;4.40;;
1400;SDS011;46518;48.842;8.926;2023-05-07T14:49:52;7.47;;;5.95;;
1400;SDS011;46518;48.842;8.926;2023-05-07T14:52:21;5.28;;;4.88;;
1400;SDS011;46518;48.842;8.926;2023-05-07T14:54:49;6.22;;;5.13;;
1400;SDS011;46518;48.842;8.926;2023-05-07T14:57:17;5.78;;;5.03;;
1400;SDS011;46518;48.842;8.926;2023-05-07T14:59:46;5.10;;;4.70;;
1400;SDS011;46518;48.842;8.926;2023-05-07T15:02:16;3.80;;;3.60;;
1400;SDS011;46518;48.842;8.926;2023-05-07T15:04:47;4.68;;;4.30;;
1400;SDS011;46518;48.842;8.926;2023-05-07T15:07:15;5.35;;;4.85;;
1400;SDS011;46518;48.842;8.926;2023-05-07T15:09:44;6.20;;;5.60;;
1400;SDS011;46518;48.842;8.926;2023-05-07T15:12:14;5.93;;;5.30;;
1400;SDS011;46518;48.842;8.926;2023-05-07T15:14:42;6.57;;;5.53;;
1400;SDS011;46518;48.842;8.926;2023-05-07T15:17:11;5.45;;;4.38;;
1400;SDS011;46518;48.842;8.926;2023-05-07T15:19:42;5.60;;;5.05;;
1400;SDS011;46518;48.842;8.926;2023-05-07T15:22:11;7.80;;;6.28;;
1400;SDS011;46518;48.842;8.926;2023-05-07T15:24:39;6.07;;;5.47;;
1400;SDS011;46518;48.842;8.926;2023-05-07T15:27:09;5.07;;;4.63;;
1400;SDS011;46518;48.842;8.926;2023-05-07T15:29:38;4.65;;;4.25;;
1400;SDS011;46518;48.842;8.926;2023-05-07T15:32:06;4.63;;;4.03;;
1400;SDS011;46518;48.842;8.926;2023-05-07T15:34:36;5.28;;;4.68;;